Terminal Aerodrome Forecast
Issued by NWS

Home | Current Version | Previous Version | Text Only | Print | Product List | Glossary On
Versions: 1 2 3 4 5 6 7 8 9 10 11 12 13 14 15 16 17 18 19 20 21 22 23 24 25 26
000
FTUS46 KMTR 290500
TAFSFO
TAF
KSFO 290528Z 2906/3012 29010KT P6SM FEW010 SCT200
     FM291000 29006KT P6SM BKN010
     FM291700 29009KT P6SM SCT012
     FM291900 29016KT P6SM SKC
     FM300400 29010KT P6SM FEW010
     FM301000 29005KT P6SM SCT010=

USA.gov is the U.S. government's official web portal to all federal, state and local government web resources and services.